sensor_id;sensor_type;location;lat;lon;timestamp;P1;durP1;ratioP1;P2;durP2;ratioP2
803;SDS011;25687;49.976;8.240;2023-03-14T00:01:10;3.23;;;1.30;;
803;SDS011;25687;49.976;8.240;2023-03-14T00:03:40;4.37;;;1.53;;
803;SDS011;25687;49.976;8.240;2023-03-14T00:06:05;3.73;;;1.60;;
803;SDS011;25687;49.976;8.240;2023-03-14T00:08:31;2.97;;;1.63;;
803;SDS011;25687;49.976;8.240;2023-03-14T00:10:57;3.53;;;1.37;;
803;SDS011;25687;49.976;8.240;2023-03-14T00:13:23;4.73;;;1.50;;
803;SDS011;25687;49.976;8.240;2023-03-14T00:15:49;5.90;;;1.60;;
803;SDS011;25687;49.976;8.240;2023-03-14T00:18:14;4.43;;;1.53;;
803;SDS011;25687;49.976;8.240;2023-03-14T00:20:40;3.73;;;1.80;;
803;SDS011;25687;49.976;8.240;2023-03-14T00:23:05;3.17;;;1.43;;
803;SDS011;25687;49.976;8.240;2023-03-14T00:25:30;1.90;;;1.23;;
803;SDS011;25687;49.976;8.240;2023-03-14T00:27:56;2.13;;;1.43;;
803;SDS011;25687;49.976;8.240;2023-03-14T00:30:21;3.77;;;1.57;;
803;SDS011;25687;49.976;8.240;2023-03-14T00:32:46;4.23;;;1.33;;
803;SDS011;25687;49.976;8.240;2023-03-14T00:35:12;6.10;;;2.17;;
803;SDS011;25687;49.976;8.240;2023-03-14T00:37:37;4.43;;;1.50;;
803;SDS011;25687;49.976;8.240;2023-03-14T00:40:03;6.67;;;1.67;;
803;SDS011;25687;49.976;8.240;2023-03-14T00:42:33;4.07;;;1.27;;
803;SDS011;25687;49.976;8.240;2023-03-14T00:44:59;4.37;;;2.17;;
803;SDS011;25687;49.976;8.240;2023-03-14T00:47:24;4.77;;;1.47;;
803;SDS011;25687;49.976;8.240;2023-03-14T00:49:50;4.83;;;1.70;;
803;SDS011;25687;49.976;8.240;2023-03-14T00:52:15;3.13;;;1.60;;
803;SDS011;25687;49.976;8.240;2023-03-14T00:54:41;3.63;;;1.70;;
803;SDS011;25687;49.976;8.240;2023-03-14T00:57:08;4.43;;;1.50;;
803;SDS011;25687;49.976;8.240;2023-03-14T00:59:33;4.80;;;1.70;;
803;SDS011;25687;49.976;8.240;2023-03-14T01:01:59;5.60;;;1.73;;
803;SDS011;25687;49.976;8.240;2023-03-14T01:04:24;4.23;;;1.43;;
803;SDS011;25687;49.976;8.240;2023-03-14T01:06:49;4.17;;;1.60;;
803;SDS011;25687;49.976;8.240;2023-03-14T01:09:15;5.33;;;1.93;;
803;SDS011;25687;49.976;8.240;2023-03-14T01:11:42;3.27;;;1.43;;
803;SDS011;25687;49.976;8.240;2023-03-14T01:14:11;6.37;;;1.97;;
803;SDS011;25687;49.976;8.240;2023-03-14T01:16:36;6.50;;;1.70;;
803;SDS011;25687;49.976;8.240;2023-03-14T01:19:02;5.83;;;2.00;;
803;SDS011;25687;49.976;8.240;2023-03-14T01:21:29;4.10;;;2.23;;
803;SDS011;25687;49.976;8.240;2023-03-14T01:23:56;5.73;;;1.97;;
803;SDS011;25687;49.976;8.240;2023-03-14T01:26:24;8.17;;;1.50;;
803;SDS011;25687;49.976;8.240;2023-03-14T01:28:51;4.03;;;1.67;;
803;SDS011;25687;49.976;8.240;2023-03-14T01:31:19;3.77;;;1.73;;
803;SDS011;25687;49.976;8.240;2023-03-14T01:33:45;4.87;;;1.70;;
803;SDS011;25687;49.976;8.240;2023-03-14T01:36:13;3.23;;;1.40;;
803;SDS011;25687;49.976;8.240;2023-03-14T01:38:39;5.67;;;1.80;;
803;SDS011;25687;49.976;8.240;2023-03-14T01:41:05;3.17;;;1.53;;
803;SDS011;25687;49.976;8.240;2023-03-14T01:43:32;6.07;;;1.90;;
803;SDS011;25687;49.976;8.240;2023-03-14T01:48:30;4.83;;;1.97;;
803;SDS011;25687;49.976;8.240;2023-03-14T01:51:18;5.47;;;1.93;;
803;SDS011;25687;49.976;8.240;2023-03-14T01:53:49;8.20;;;1.70;;
803;SDS011;25687;49.976;8.240;2023-03-14T01:56:17;3.83;;;1.50;;
803;SDS011;25687;49.976;8.240;2023-03-14T01:58:44;5.47;;;1.67;;
803;SDS011;25687;49.976;8.240;2023-03-14T02:01:13;5.57;;;2.53;;
803;SDS011;25687;49.976;8.240;2023-03-14T02:03:52;7.87;;;1.70;;
803;SDS011;25687;49.976;8.240;2023-03-14T02:06:21;6.07;;;1.80;;
803;SDS011;25687;49.976;8.240;2023-03-14T02:08:50;5.00;;;1.70;;
803;SDS011;25687;49.976;8.240;2023-03-14T02:11:16;6.50;;;1.80;;
803;SDS011;25687;49.976;8.240;2023-03-14T02:13:43;7.30;;;1.60;;
803;SDS011;25687;49.976;8.240;2023-03-14T02:16:09;3.83;;;1.67;;
803;SDS011;25687;49.976;8.240;2023-03-14T02:18:35;5.43;;;2.13;;
803;SDS011;25687;49.976;8.240;2023-03-14T02:21:03;5.23;;;1.60;;
803;SDS011;25687;49.976;8.240;2023-03-14T02:26:31;4.47;;;2.00;;
803;SDS011;25687;49.976;8.240;2023-03-14T02:29:02;7.10;;;1.80;;
803;SDS011;25687;49.976;8.240;2023-03-14T02:31:28;6.17;;;1.60;;
803;SDS011;25687;49.976;8.240;2023-03-14T02:33:53;7.10;;;2.10;;
803;SDS011;25687;49.976;8.240;2023-03-14T02:36:20;8.20;;;2.13;;
803;SDS011;25687;49.976;8.240;2023-03-14T02:38:53;9.57;;;2.10;;
803;SDS011;25687;49.976;8.240;2023-03-14T02:41:25;7.73;;;1.80;;
803;SDS011;25687;49.976;8.240;2023-03-14T02:43:51;4.53;;;1.90;;
803;SDS011;25687;49.976;8.240;2023-03-14T02:46:16;6.53;;;1.90;;
803;SDS011;25687;49.976;8.240;2023-03-14T02:51:18;3.83;;;1.67;;
803;SDS011;25687;49.976;8.240;2023-03-14T02:53:45;4.67;;;2.03;;
803;SDS011;25687;49.976;8.240;2023-03-14T02:56:10;4.50;;;1.57;;
803;SDS011;25687;49.976;8.240;2023-03-14T02:58:36;5.90;;;2.10;;
803;SDS011;25687;49.976;8.240;2023-03-14T03:01:02;5.70;;;1.70;;
803;SDS011;25687;49.976;8.240;2023-03-14T03:03:27;5.97;;;1.63;;
803;SDS011;25687;49.976;8.240;2023-03-14T03:05:53;6.93;;;1.73;;
803;SDS011;25687;49.976;8.240;2023-03-14T03:08:21;6.17;;;2.07;;
803;SDS011;25687;49.976;8.240;2023-03-14T03:10:47;7.97;;;2.03;;
803;SDS011;25687;49.976;8.240;2023-03-14T03:13:13;7.57;;;1.90;;
803;SDS011;25687;49.976;8.240;2023-03-14T03:15:38;5.67;;;1.80;;
803;SDS011;25687;49.976;8.240;2023-03-14T03:18:04;5.00;;;1.80;;
803;SDS011;25687;49.976;8.240;2023-03-14T03:20:30;5.17;;;1.80;;
803;SDS011;25687;49.976;8.240;2023-03-14T03:22:55;5.83;;;2.23;;
803;SDS011;25687;49.976;8.240;2023-03-14T03:28:21;6.57;;;2.00;;
803;SDS011;25687;49.976;8.240;2023-03-14T03:30:48;4.00;;;2.03;;
803;SDS011;25687;49.976;8.240;2023-03-14T03:33:14;4.60;;;1.83;;
803;SDS011;25687;49.976;8.240;2023-03-14T03:35:47;4.10;;;1.70;;
803;SDS011;25687;49.976;8.240;2023-03-14T03:38:14;5.53;;;2.13;;
803;SDS011;25687;49.976;8.240;2023-03-14T03:40:40;7.47;;;1.70;;
803;SDS011;25687;49.976;8.240;2023-03-14T03:43:05;5.77;;;1.77;;
803;SDS011;25687;49.976;8.240;2023-03-14T03:45:31;6.67;;;1.73;;
803;SDS011;25687;49.976;8.240;2023-03-14T03:47:56;3.80;;;1.80;;
803;SDS011;25687;49.976;8.240;2023-03-14T03:50:22;8.37;;;1.47;;
803;SDS011;25687;49.976;8.240;2023-03-14T03:52:47;7.87;;;2.10;;
803;SDS011;25687;49.976;8.240;2023-03-14T03:55:12;6.40;;;1.47;;
803;SDS011;25687;49.976;8.240;2023-03-14T03:57:38;6.10;;;1.50;;
803;SDS011;25687;49.976;8.240;2023-03-14T04:00:04;7.20;;;2.00;;
803;SDS011;25687;49.976;8.240;2023-03-14T04:02:30;7.67;;;2.10;;
803;SDS011;25687;49.976;8.240;2023-03-14T04:04:56;5.20;;;1.90;;
803;SDS011;25687;49.976;8.240;2023-03-14T04:07:24;4.33;;;1.60;;
803;SDS011;25687;49.976;8.240;2023-03-14T04:09:49;4.27;;;1.77;;
803;SDS011;25687;49.976;8.240;2023-03-14T04:12:14;6.90;;;1.80;;
803;SDS011;25687;49.976;8.240;2023-03-14T04:14:40;3.10;;;1.50;;
803;SDS011;25687;49.976;8.240;2023-03-14T04:17:06;5.03;;;1.57;;
803;SDS011;25687;49.976;8.240;2023-03-14T04:19:31;4.03;;;1.40;;
803;SDS011;25687;49.976;8.240;2023-03-14T04:21:57;3.57;;;1.53;;
803;SDS011;25687;49.976;8.240;2023-03-14T04:24:22;5.60;;;1.80;;
803;SDS011;25687;49.976;8.240;2023-03-14T04:26:47;7.10;;;2.00;;
803;SDS011;25687;49.976;8.240;2023-03-14T04:29:12;3.80;;;1.40;;
803;SDS011;25687;49.976;8.240;2023-03-14T04:31:38;4.83;;;1.60;;
803;SDS011;25687;49.976;8.240;2023-03-14T04:34:03;2.43;;;1.33;;
803;SDS011;25687;49.976;8.240;2023-03-14T04:36:28;3.73;;;1.30;;
803;SDS011;25687;49.976;8.240;2023-03-14T04:38:54;5.83;;;1.80;;
803;SDS011;25687;49.976;8.240;2023-03-14T04:41:19;2.37;;;1.30;;
803;SDS011;25687;49.976;8.240;2023-03-14T04:43:44;2.27;;;1.07;;
803;SDS011;25687;49.976;8.240;2023-03-14T04:46:09;3.13;;;1.10;;
803;SDS011;25687;49.976;8.240;2023-03-14T04:48:35;4.90;;;1.53;;
803;SDS011;25687;49.976;8.240;2023-03-14T04:51:00;4.67;;;1.80;;
803;SDS011;25687;49.976;8.240;2023-03-14T04:53:25;5.03;;;1.27;;
803;SDS011;25687;49.976;8.240;2023-03-14T04:55:52;3.00;;;1.60;;
803;SDS011;25687;49.976;8.240;2023-03-14T04:58:19;3.23;;;1.43;;
803;SDS011;25687;49.976;8.240;2023-03-14T05:00:45;3.87;;;1.73;;
803;SDS011;25687;49.976;8.240;2023-03-14T05:03:11;3.17;;;1.50;;
803;SDS011;25687;49.976;8.240;2023-03-14T05:05:36;6.10;;;2.00;;
803;SDS011;25687;49.976;8.240;2023-03-14T05:08:02;2.87;;;1.33;;
803;SDS011;25687;49.976;8.240;2023-03-14T05:10:27;2.93;;;1.47;;
803;SDS011;25687;49.976;8.240;2023-03-14T05:12:53;3.80;;;1.03;;
803;SDS011;25687;49.976;8.240;2023-03-14T05:15:18;4.83;;;1.60;;
803;SDS011;25687;49.976;8.240;2023-03-14T05:17:43;4.30;;;1.40;;
803;SDS011;25687;49.976;8.240;2023-03-14T05:20:09;8.27;;;1.40;;
803;SDS011;25687;49.976;8.240;2023-03-14T05:22:37;2.70;;;1.23;;
803;SDS011;25687;49.976;8.240;2023-03-14T05:25:03;4.17;;;1.37;;
803;SDS011;25687;49.976;8.240;2023-03-14T05:27:29;3.27;;;1.60;;
803;SDS011;25687;49.976;8.240;2023-03-14T05:29:54;3.70;;;1.27;;
803;SDS011;25687;49.976;8.240;2023-03-14T05:32:19;3.47;;;1.53;;
803;SDS011;25687;49.976;8.240;2023-03-14T05:34:44;5.43;;;1.50;;
803;SDS011;25687;49.976;8.240;2023-03-14T05:37:10;2.10;;;1.00;;
803;SDS011;25687;49.976;8.240;2023-03-14T05:39:35;4.37;;;1.70;;
803;SDS011;25687;49.976;8.240;2023-03-14T05:42:00;4.63;;;1.40;;
803;SDS011;25687;49.976;8.240;2023-03-14T05:44:25;2.97;;;1.40;;
803;SDS011;25687;49.976;8.240;2023-03-14T05:46:51;3.17;;;1.47;;
803;SDS011;25687;49.976;8.240;2023-03-14T05:49:16;6.03;;;1.57;;
803;SDS011;25687;49.976;8.240;2023-03-14T05:51:41;3.20;;;1.10;;
803;SDS011;25687;49.976;8.240;2023-03-14T05:54:07;2.83;;;1.20;;
803;SDS011;25687;49.976;8.240;2023-03-14T05:56:32;6.60;;;1.50;;
803;SDS011;25687;49.976;8.240;2023-03-14T05:58:58;3.57;;;1.50;;
803;SDS011;25687;49.976;8.240;2023-03-14T06:01:26;4.10;;;1.50;;
803;SDS011;25687;49.976;8.240;2023-03-14T06:03:51;4.87;;;1.50;;
803;SDS011;25687;49.976;8.240;2023-03-14T06:06:17;3.17;;;1.30;;
803;SDS011;25687;49.976;8.240;2023-03-14T06:08:42;1.97;;;1.07;;
803;SDS011;25687;49.976;8.240;2023-03-14T06:11:07;3.47;;;1.47;;
803;SDS011;25687;49.976;8.240;2023-03-14T06:13:33;3.30;;;1.10;;
803;SDS011;25687;49.976;8.240;2023-03-14T06:15:58;4.40;;;1.30;;
803;SDS011;25687;49.976;8.240;2023-03-14T06:18:24;3.13;;;1.43;;
803;SDS011;25687;49.976;8.240;2023-03-14T06:20:49;2.90;;;1.50;;
803;SDS011;25687;49.976;8.240;2023-03-14T06:23:18;2.63;;;1.13;;
803;SDS011;25687;49.976;8.240;2023-03-14T06:25:43;2.50;;;1.43;;
803;SDS011;25687;49.976;8.240;2023-03-14T06:28:08;10.97;;;1.40;;
803;SDS011;25687;49.976;8.240;2023-03-14T06:30:36;4.97;;;1.20;;
803;SDS011;25687;49.976;8.240;2023-03-14T06:33:01;3.30;;;1.30;;
803;SDS011;25687;49.976;8.240;2023-03-14T06:35:26;3.70;;;1.40;;
803;SDS011;25687;49.976;8.240;2023-03-14T06:37:52;2.50;;;1.17;;
803;SDS011;25687;49.976;8.240;2023-03-14T06:40:17;3.73;;;1.30;;
803;SDS011;25687;49.976;8.240;2023-03-14T06:42:43;4.23;;;1.57;;
803;SDS011;25687;49.976;8.240;2023-03-14T06:45:10;3.00;;;1.00;;
803;SDS011;25687;49.976;8.240;2023-03-14T06:47:36;4.87;;;1.20;;
803;SDS011;25687;49.976;8.240;2023-03-14T06:50:03;5.13;;;1.40;;
803;SDS011;25687;49.976;8.240;2023-03-14T06:52:29;2.70;;;1.20;;
803;SDS011;25687;49.976;8.240;2023-03-14T06:54:54;2.33;;;1.40;;
803;SDS011;25687;49.976;8.240;2023-03-14T06:57:19;2.20;;;1.10;;
803;SDS011;25687;49.976;8.240;2023-03-14T06:59:45;3.43;;;1.47;;
803;SDS011;25687;49.976;8.240;2023-03-14T07:02:11;3.43;;;1.73;;
803;SDS011;25687;49.976;8.240;2023-03-14T07:04:39;2.23;;;1.40;;
803;SDS011;25687;49.976;8.240;2023-03-14T07:07:07;1.77;;;1.30;;
803;SDS011;25687;49.976;8.240;2023-03-14T07:09:32;2.33;;;0.90;;
803;SDS011;25687;49.976;8.240;2023-03-14T07:11:58;3.13;;;1.20;;
803;SDS011;25687;49.976;8.240;2023-03-14T07:14:24;4.13;;;1.10;;
803;SDS011;25687;49.976;8.240;2023-03-14T07:16:49;1.53;;;0.80;;
803;SDS011;25687;49.976;8.240;2023-03-14T07:19:15;2.73;;;1.10;;
803;SDS011;25687;49.976;8.240;2023-03-14T07:21:40;2.43;;;1.30;;
803;SDS011;25687;49.976;8.240;2023-03-14T07:24:06;3.00;;;1.63;;
803;SDS011;25687;49.976;8.240;2023-03-14T07:26:31;4.10;;;1.30;;
803;SDS011;25687;49.976;8.240;2023-03-14T07:28:57;4.33;;;1.30;;
803;SDS011;25687;49.976;8.240;2023-03-14T07:31:23;2.60;;;1.63;;
803;SDS011;25687;49.976;8.240;2023-03-14T07:33:48;3.00;;;1.23;;
803;SDS011;25687;49.976;8.240;2023-03-14T07:36:14;3.57;;;1.40;;
803;SDS011;25687;49.976;8.240;2023-03-14T07:38:39;5.53;;;1.90;;
803;SDS011;25687;49.976;8.240;2023-03-14T07:41:05;2.63;;;1.60;;
803;SDS011;25687;49.976;8.240;2023-03-14T07:43:31;2.80;;;1.27;;
803;SDS011;25687;49.976;8.240;2023-03-14T07:45:57;2.63;;;1.50;;
803;SDS011;25687;49.976;8.240;2023-03-14T07:48:22;3.10;;;1.30;;
803;SDS011;25687;49.976;8.240;2023-03-14T07:50:59;2.10;;;1.50;;
803;SDS011;25687;49.976;8.240;2023-03-14T07:53:24;2.23;;;1.30;;
803;SDS011;25687;49.976;8.240;2023-03-14T07:55:50;2.30;;;1.33;;
803;SDS011;25687;49.976;8.240;2023-03-14T07:58:17;2.53;;;1.40;;
803;SDS011;25687;49.976;8.240;2023-03-14T08:00:43;2.33;;;1.20;;
803;SDS011;25687;49.976;8.240;2023-03-14T08:03:13;3.20;;;1.10;;
803;SDS011;25687;49.976;8.240;2023-03-14T08:05:38;2.30;;;1.57;;
803;SDS011;25687;49.976;8.240;2023-03-14T08:08:04;2.73;;;1.43;;
803;SDS011;25687;49.976;8.240;2023-03-14T08:10:30;5.77;;;2.27;;
803;SDS011;25687;49.976;8.240;2023-03-14T08:12:57;3.73;;;1.70;;
803;SDS011;25687;49.976;8.240;2023-03-14T08:15:23;4.47;;;1.88;;
803;SDS011;25687;49.976;8.240;2023-03-14T08:17:50;2.87;;;1.40;;
803;SDS011;25687;49.976;8.240;2023-03-14T08:20:19;5.57;;;1.80;;
803;SDS011;25687;49.976;8.240;2023-03-14T08:22:46;3.40;;;1.93;;
803;SDS011;25687;49.976;8.240;2023-03-14T08:25:12;3.70;;;1.70;;
803;SDS011;25687;49.976;8.240;2023-03-14T08:27:38;3.50;;;1.80;;
803;SDS011;25687;49.976;8.240;2023-03-14T08:30:07;4.13;;;1.87;;
803;SDS011;25687;49.976;8.240;2023-03-14T08:32:34;4.23;;;1.77;;
803;SDS011;25687;49.976;8.240;2023-03-14T08:34:59;6.07;;;2.70;;
803;SDS011;25687;49.976;8.240;2023-03-14T08:37:25;2.27;;;1.23;;
803;SDS011;25687;49.976;8.240;2023-03-14T08:39:50;2.47;;;1.47;;
803;SDS011;25687;49.976;8.240;2023-03-14T08:42:16;3.20;;;1.60;;
803;SDS011;25687;49.976;8.240;2023-03-14T08:44:42;4.30;;;1.60;;
803;SDS011;25687;49.976;8.240;2023-03-14T08:47:07;4.10;;;1.73;;
803;SDS011;25687;49.976;8.240;2023-03-14T08:49:32;2.50;;;1.70;;
803;SDS011;25687;49.976;8.240;2023-03-14T08:51:58;1.73;;;1.30;;
803;SDS011;25687;49.976;8.240;2023-03-14T08:54:23;2.87;;;1.30;;
803;SDS011;25687;49.976;8.240;2023-03-14T08:56:49;3.27;;;1.57;;
803;SDS011;25687;49.976;8.240;2023-03-14T08:59:15;1.80;;;1.20;;
803;SDS011;25687;49.976;8.240;2023-03-14T09:01:40;2.07;;;1.37;;
803;SDS011;25687;49.976;8.240;2023-03-14T09:04:05;1.97;;;1.00;;
803;SDS011;25687;49.976;8.240;2023-03-14T09:06:32;3.07;;;1.23;;
803;SDS011;25687;49.976;8.240;2023-03-14T09:08:57;1.77;;;1.17;;
803;SDS011;25687;49.976;8.240;2023-03-14T09:11:23;2.53;;;0.93;;
803;SDS011;25687;49.976;8.240;2023-03-14T09:13:48;2.17;;;1.70;;
803;SDS011;25687;49.976;8.240;2023-03-14T09:16:13;2.53;;;1.40;;
803;SDS011;25687;49.976;8.240;2023-03-14T09:18:39;1.40;;;1.10;;
803;SDS011;25687;49.976;8.240;2023-03-14T09:21:04;1.63;;;1.07;;
803;SDS011;25687;49.976;8.240;2023-03-14T09:23:30;2.30;;;1.13;;
803;SDS011;25687;49.976;8.240;2023-03-14T09:25:56;1.33;;;1.00;;
803;SDS011;25687;49.976;8.240;2023-03-14T09:28:22;1.97;;;1.10;;
803;SDS011;25687;49.976;8.240;2023-03-14T09:30:48;1.70;;;1.20;;
803;SDS011;25687;49.976;8.240;2023-03-14T09:33:14;2.50;;;1.23;;
803;SDS011;25687;49.976;8.240;2023-03-14T09:35:40;2.63;;;1.17;;
803;SDS011;25687;49.976;8.240;2023-03-14T09:38:05;1.77;;;1.20;;
803;SDS011;25687;49.976;8.240;2023-03-14T09:40:31;2.43;;;1.40;;
803;SDS011;25687;49.976;8.240;2023-03-14T09:43:00;3.13;;;2.00;;
803;SDS011;25687;49.976;8.240;2023-03-14T09:45:36;1.57;;;1.30;;
803;SDS011;25687;49.976;8.240;2023-03-14T09:48:05;1.40;;;1.30;;
803;SDS011;25687;49.976;8.240;2023-03-14T09:50:40;1.57;;;1.30;;
803;SDS011;25687;49.976;8.240;2023-03-14T09:53:13;2.93;;;1.60;;
803;SDS011;25687;49.976;8.240;2023-03-14T09:55:42;2.10;;;1.10;;
803;SDS011;25687;49.976;8.240;2023-03-14T09:58:11;2.00;;;1.00;;
803;SDS011;25687;49.976;8.240;2023-03-14T10:00:38;2.73;;;1.13;;
803;SDS011;25687;49.976;8.240;2023-03-14T10:05:38;4.50;;;1.63;;
803;SDS011;25687;49.976;8.240;2023-03-14T10:08:05;2.57;;;1.20;;
803;SDS011;25687;49.976;8.240;2023-03-14T10:10:30;1.57;;;1.40;;
803;SDS011;25687;49.976;8.240;2023-03-14T10:12:57;3.33;;;1.50;;
803;SDS011;25687;49.976;8.240;2023-03-14T10:15:48;4.57;;;1.13;;
803;SDS011;25687;49.976;8.240;2023-03-14T10:18:18;2.20;;;1.07;;
803;SDS011;25687;49.976;8.240;2023-03-14T10:20:44;2.30;;;1.00;;
803;SDS011;25687;49.976;8.240;2023-03-14T10:25:38;1.30;;;0.90;;
803;SDS011;25687;49.976;8.240;2023-03-14T10:28:09;2.57;;;1.17;;
803;SDS011;25687;49.976;8.240;2023-03-14T10:30:48;0.83;;;0.70;;
803;SDS011;25687;49.976;8.240;2023-03-14T10:35:45;2.23;;;0.87;;
803;SDS011;25687;49.976;8.240;2023-03-14T10:38:16;1.27;;;1.00;;
803;SDS011;25687;49.976;8.240;2023-03-14T10:40:49;4.13;;;1.40;;
803;SDS011;25687;49.976;8.240;2023-03-14T10:43:19;0.93;;;0.93;;
803;SDS011;25687;49.976;8.240;2023-03-14T10:45:52;3.70;;;1.03;;
803;SDS011;25687;49.976;8.240;2023-03-14T10:48:32;1.10;;;1.03;;
803;SDS011;25687;49.976;8.240;2023-03-14T10:53:43;1.27;;;1.00;;
803;SDS011;25687;49.976;8.240;2023-03-14T10:56:11;1.10;;;0.90;;
803;SDS011;25687;49.976;8.240;2023-03-14T10:58:48;1.07;;;0.80;;
803;SDS011;25687;49.976;8.240;2023-03-14T11:04:13;1.13;;;0.97;;
803;SDS011;25687;49.976;8.240;2023-03-14T11:07:05;1.17;;;0.80;;
803;SDS011;25687;49.976;8.240;2023-03-14T11:12:13;2.10;;;0.63;;
803;SDS011;25687;49.976;8.240;2023-03-14T11:14:43;0.67;;;0.67;;
803;SDS011;25687;49.976;8.240;2023-03-14T11:17:38;1.27;;;0.70;;
803;SDS011;25687;49.976;8.240;2023-03-14T11:22:59;1.77;;;0.30;;
803;SDS011;25687;49.976;8.240;2023-03-14T11:25:32;3.33;;;0.63;;
803;SDS011;25687;49.976;8.240;2023-03-14T11:33:56;0.50;;;0.40;;
803;SDS011;25687;49.976;8.240;2023-03-14T11:36:31;0.63;;;0.30;;
803;SDS011;25687;49.976;8.240;2023-03-14T11:39:02;1.43;;;0.40;;
803;SDS011;25687;49.976;8.240;2023-03-14T11:41:33;0.87;;;0.53;;
803;SDS011;25687;49.976;8.240;2023-03-14T11:44:04;0.57;;;0.50;;
803;SDS011;25687;49.976;8.240;2023-03-14T11:46:50;0.20;;;0.20;;
803;SDS011;25687;49.976;8.240;2023-03-14T11:51:57;0.20;;;0.20;;
803;SDS011;25687;49.976;8.240;2023-03-14T11:57:17;0.93;;;0.50;;
803;SDS011;25687;49.976;8.240;2023-03-14T12:08:27;0.63;;;0.30;;
803;SDS011;25687;49.976;8.240;2023-03-14T12:13:20;0.80;;;0.30;;
803;SDS011;25687;49.976;8.240;2023-03-14T12:15:47;0.37;;;0.37;;
803;SDS011;25687;49.976;8.240;2023-03-14T12:18:21;0.30;;;0.30;;
803;SDS011;25687;49.976;8.240;2023-03-14T12:20:56;0.70;;;0.30;;
803;SDS011;25687;49.976;8.240;2023-03-14T12:23:23;0.10;;;0.10;;
803;SDS011;25687;49.976;8.240;2023-03-14T12:26:13;0.30;;;0.30;;
803;SDS011;25687;49.976;8.240;2023-03-14T12:28:42;0.57;;;0.40;;
803;SDS011;25687;49.976;8.240;2023-03-14T12:31:38;0.33;;;0.33;;
803;SDS011;25687;49.976;8.240;2023-03-14T12:44:46;0.60;;;0.60;;
803;SDS011;25687;49.976;8.240;2023-03-14T12:49:44;0.30;;;0.30;;
803;SDS011;25687;49.976;8.240;2023-03-14T12:52:15;0.40;;;0.40;;
803;SDS011;25687;49.976;8.240;2023-03-14T12:54:45;0.47;;;0.37;;
803;SDS011;25687;49.976;8.240;2023-03-14T13:00:19;0.27;;;0.27;;
803;SDS011;25687;49.976;8.240;2023-03-14T13:02:47;1.40;;;0.40;;
803;SDS011;25687;49.976;8.240;2023-03-14T13:10:18;0.40;;;0.40;;
803;SDS011;25687;49.976;8.240;2023-03-14T13:15:23;1.47;;;0.40;;
803;SDS011;25687;49.976;8.240;2023-03-14T13:17:49;2.07;;;0.40;;
803;SDS011;25687;49.976;8.240;2023-03-14T13:20:24;2.10;;;0.60;;
803;SDS011;25687;49.976;8.240;2023-03-14T13:22:54;1.10;;;0.60;;
803;SDS011;25687;49.976;8.240;2023-03-14T13:25:20;0.60;;;0.40;;
803;SDS011;25687;49.976;8.240;2023-03-14T13:27:47;2.17;;;0.63;;
803;SDS011;25687;49.976;8.240;2023-03-14T13:30:24;1.90;;;0.57;;
803;SDS011;25687;49.976;8.240;2023-03-14T13:32:53;2.30;;;0.67;;
803;SDS011;25687;49.976;8.240;2023-03-14T13:35:24;0.77;;;0.50;;
803;SDS011;25687;49.976;8.240;2023-03-14T13:37:52;0.50;;;0.50;;
803;SDS011;25687;49.976;8.240;2023-03-14T13:40:25;0.88;;;0.82;;
803;SDS011;25687;49.976;8.240;2023-03-14T13:43:01;0.90;;;0.90;;
803;SDS011;25687;49.976;8.240;2023-03-14T13:45:29;0.80;;;0.80;;
803;SDS011;25687;49.976;8.240;2023-03-14T13:47:54;1.53;;;1.00;;
803;SDS011;25687;49.976;8.240;2023-03-14T13:50:20;0.70;;;0.70;;
803;SDS011;25687;49.976;8.240;2023-03-14T13:52:45;1.70;;;0.87;;
803;SDS011;25687;49.976;8.240;2023-03-14T13:55:15;5.13;;;1.10;;
803;SDS011;25687;49.976;8.240;2023-03-14T13:57:46;1.10;;;0.97;;
803;SDS011;25687;49.976;8.240;2023-03-14T14:00:20;2.20;;;1.10;;
803;SDS011;25687;49.976;8.240;2023-03-14T14:02:51;1.40;;;1.30;;
803;SDS011;25687;49.976;8.240;2023-03-14T14:05:17;1.40;;;1.30;;
803;SDS011;25687;49.976;8.240;2023-03-14T14:07:42;2.13;;;1.20;;
803;SDS011;25687;49.976;8.240;2023-03-14T14:10:10;0.90;;;0.80;;
803;SDS011;25687;49.976;8.240;2023-03-14T14:12:42;1.60;;;1.10;;
803;SDS011;25687;49.976;8.240;2023-03-14T14:15:19;1.00;;;0.80;;
803;SDS011;25687;49.976;8.240;2023-03-14T14:17:57;1.30;;;1.07;;
803;SDS011;25687;49.976;8.240;2023-03-14T14:20:30;1.33;;;1.20;;
803;SDS011;25687;49.976;8.240;2023-03-14T14:23:01;0.77;;;0.77;;
803;SDS011;25687;49.976;8.240;2023-03-14T14:25:29;0.93;;;0.70;;
803;SDS011;25687;49.976;8.240;2023-03-14T14:27:55;3.87;;;1.27;;
803;SDS011;25687;49.976;8.240;2023-03-14T14:32:46;1.10;;;1.00;;
803;SDS011;25687;49.976;8.240;2023-03-14T14:37:49;2.00;;;1.57;;
803;SDS011;25687;49.976;8.240;2023-03-14T14:42:48;2.20;;;1.40;;
803;SDS011;25687;49.976;8.240;2023-03-14T14:45:22;3.77;;;1.60;;
803;SDS011;25687;49.976;8.240;2023-03-14T14:48:05;1.33;;;1.23;;
803;SDS011;25687;49.976;8.240;2023-03-14T14:50:36;2.07;;;1.50;;
803;SDS011;25687;49.976;8.240;2023-03-14T14:53:19;1.47;;;1.00;;
803;SDS011;25687;49.976;8.240;2023-03-14T14:55:52;3.55;;;1.45;;
803;SDS011;25687;49.976;8.240;2023-03-14T14:58:23;2.67;;;1.20;;
803;SDS011;25687;49.976;8.240;2023-03-14T15:03:32;2.70;;;1.33;;
803;SDS011;25687;49.976;8.240;2023-03-14T15:05:59;1.27;;;1.17;;
803;SDS011;25687;49.976;8.240;2023-03-14T15:08:26;2.00;;;1.20;;
803;SDS011;25687;49.976;8.240;2023-03-14T15:10:52;2.57;;;1.10;;
803;SDS011;25687;49.976;8.240;2023-03-14T15:13:18;2.63;;;1.57;;
803;SDS011;25687;49.976;8.240;2023-03-14T15:15:43;2.47;;;1.20;;
803;SDS011;25687;49.976;8.240;2023-03-14T15:18:13;1.43;;;1.20;;
803;SDS011;25687;49.976;8.240;2023-03-14T15:20:41;3.00;;;1.10;;
803;SDS011;25687;49.976;8.240;2023-03-14T15:23:13;2.90;;;1.10;;
803;SDS011;25687;49.976;8.240;2023-03-14T15:25:41;1.33;;;1.03;;
803;SDS011;25687;49.976;8.240;2023-03-14T15:28:14;1.70;;;1.10;;
803;SDS011;25687;49.976;8.240;2023-03-14T15:30:41;3.10;;;1.07;;
803;SDS011;25687;49.976;8.240;2023-03-14T15:33:07;2.90;;;1.10;;
803;SDS011;25687;49.976;8.240;2023-03-14T15:35:34;1.13;;;0.90;;
803;SDS011;25687;49.976;8.240;2023-03-14T15:38:01;3.70;;;1.00;;
803;SDS011;25687;49.976;8.240;2023-03-14T15:40:26;0.93;;;0.80;;
803;SDS011;25687;49.976;8.240;2023-03-14T15:42:51;3.03;;;1.13;;
803;SDS011;25687;49.976;8.240;2023-03-14T15:45:17;1.93;;;1.10;;
803;SDS011;25687;49.976;8.240;2023-03-14T15:47:42;1.63;;;1.00;;
803;SDS011;25687;49.976;8.240;2023-03-14T15:50:08;1.47;;;0.90;;
803;SDS011;25687;49.976;8.240;2023-03-14T15:52:35;1.10;;;0.90;;
803;SDS011;25687;49.976;8.240;2023-03-14T15:55:00;1.70;;;0.90;;
803;SDS011;25687;49.976;8.240;2023-03-14T15:57:25;3.13;;;0.93;;
803;SDS011;25687;49.976;8.240;2023-03-14T15:59:51;0.73;;;0.73;;
803;SDS011;25687;49.976;8.240;2023-03-14T16:02:16;1.00;;;0.80;;
803;SDS011;25687;49.976;8.240;2023-03-14T16:04:41;0.73;;;0.73;;
803;SDS011;25687;49.976;8.240;2023-03-14T16:07:06;1.23;;;1.10;;
803;SDS011;25687;49.976;8.240;2023-03-14T16:09:32;1.33;;;0.93;;
803;SDS011;25687;49.976;8.240;2023-03-14T16:11:57;1.40;;;0.97;;
803;SDS011;25687;49.976;8.240;2023-03-14T16:14:22;0.80;;;0.80;;
803;SDS011;25687;49.976;8.240;2023-03-14T16:16:48;2.30;;;1.10;;
803;SDS011;25687;49.976;8.240;2023-03-14T16:19:13;2.07;;;1.10;;
803;SDS011;25687;49.976;8.240;2023-03-14T16:21:39;1.20;;;0.77;;
803;SDS011;25687;49.976;8.240;2023-03-14T16:24:04;2.53;;;1.10;;
803;SDS011;25687;49.976;8.240;2023-03-14T16:26:31;2.80;;;1.10;;
803;SDS011;25687;49.976;8.240;2023-03-14T16:28:59;1.10;;;1.00;;
803;SDS011;25687;49.976;8.240;2023-03-14T16:31:25;2.00;;;1.27;;
803;SDS011;25687;49.976;8.240;2023-03-14T16:33:50;1.63;;;0.90;;
803;SDS011;25687;49.976;8.240;2023-03-14T16:36:15;1.30;;;0.90;;
803;SDS011;25687;49.976;8.240;2023-03-14T16:38:41;1.70;;;1.00;;
803;SDS011;25687;49.976;8.240;2023-03-14T16:41:11;1.53;;;1.43;;
803;SDS011;25687;49.976;8.240;2023-03-14T16:43:38;3.13;;;1.03;;